Flight Track Log - Related Links

Times and Time Zones

All times are in EDT time to prevent confusion due to time zone crossing. See the UAL582 flight status page for this flight to view local times or setup timezone preferences in your user account.

Time Position Orientation Groundspeed Altitude Reporting Facility
EDT Latitude Longitude Course Direction KTS MPH feet Rate Location/Type
Tue 08:17:50 PM 41.9667 -88.0167 236° Southwest 246 283 4,900  Level Chicago TRACON
Tue 08:18:50 PM 41.9000 -88.0000 169° South 264 304 5,000 1,421 Climbing Chicago TRACON
Tue 08:19:44 PM 41.8333 -88.0000 180° South 265 305 7,600 2,571 Climbing Chicago TRACON
Tue 08:20:00 PM 41.8222 -87.9925 153° Southeast 267 307 8,000 3,231 Climbing Chicago Center
Tue 08:21:02 PM 41.7372 -87.9669 167° South 264 304 11,800 3,145 Climbing Chicago Center
Tue 08:22:00 PM 41.2975 -87.5748 180° South  Level Estimated
Tue 08:22:04 PM 41.6597 -87.9453 168° South 280 322 14,500  Level Chicago Center
Tue 08:23:05 PM 41.5675 -87.9194 168° South 336 387 15,800 2,537 Climbing Chicago Center
Tue 08:24:07 PM 41.4658 -87.8917 168° South 362 417 19,700 3,290 Climbing Chicago Center
Tue 08:25:09 PM 41.3628 -87.8822 176° South 362 417 22,600 2,565 Climbing Chicago Center
Tue 08:26:11 PM 41.2594 -87.8911 184° South 368 423 25,000 2,129 Climbing Chicago Center
Tue 08:27:13 PM 41.1578 -87.8811 176° South 369 425 27,000 1,694 Climbing Chicago Center
Tue 08:28:15 PM 41.0517 -87.8481 167° South 391 450 28,500 1,065 Climbing Chicago Center
Tue 08:29:17 PM 40.9178 -87.8131 169° South 409 471 29,200 927 Climbing Chicago Center
Tue 08:30:18 PM 40.7994 -87.7836 169° South 428 493 30,400 1,268 Climbing Chicago Center
Tue 08:31:20 PM 40.6808 -87.7528 169° South 435 501 31,800 1,403 Climbing Chicago Center
Tue 08:32:22 PM 40.5619 -87.7228 169° South 436 502 33,300 1,306 Climbing Chicago Center
Tue 08:33:24 PM 40.4447 -87.6944 170° South 431 496 34,500 962 Climbing Chicago Center
Tue 08:34:08 PM 40.3514 -87.6733 170° South 428 493 35,000 283 Climbing Indianapolis Center
Tue 08:35:10 PM 40.2317 -87.6436 169° South 435 501 35,000  Level Indianapolis Center
Tue 08:36:12 PM 40.1108 -87.6150 170° South 439 505 35,000  Level Indianapolis Center
Tue 08:37:13 PM 39.9908 -87.5836 169° South 438 504 35,000  Level Indianapolis Center
Tue 08:38:15 PM 39.8492 -87.5489 169° South 443 510 35,000  Level Indianapolis Center
Tue 08:39:17 PM 39.7269 -87.5194 170° South 445 512 35,000 244 Level Indianapolis Center
Tue 08:40:18 PM 39.6033 -87.4881 169° South 449 517 35,500 683 Climbing Indianapolis Center
Tue 08:41:20 PM 39.4819 -87.4594 170° South 445 512 36,400 732 Climbing Indianapolis Center
Tue 08:42:21 PM 39.3583 -87.4297 169° South 450 518 37,000 293 Climbing Indianapolis Center
Tue 08:43:23 PM 39.2361 -87.4000 169° South 447 514 37,000  Level Indianapolis Center
Tue 08:44:24 PM 39.1156 -87.3708 169° South 451 519 37,000  Level Indianapolis Center
Tue 08:45:26 PM 38.9911 -87.3417 170° South 453 521 37,000  Level Indianapolis Center
Tue 08:46:27 PM 38.8425 -87.3056 169° South 450 518 37,000  Level Indianapolis Center
Tue 08:47:29 PM 38.7178 -87.2756 169° South 453 521 37,000  Level Indianapolis Center
Tue 08:48:30 PM 38.5944 -87.2458 169° South 450 518 37,000  Level Indianapolis Center
Tue 08:49:31 PM 38.4717 -87.2175 170° South 449 517 37,000  Level Indianapolis Center
Tue 08:50:33 PM 38.3450 -87.1878 170° South 451 519 37,000  Level Indianapolis Center
Tue 08:51:34 PM 38.2192 -87.1594 170° South 456 525 37,000  Level Indianapolis Center
Tue 08:52:36 PM 38.1058 -87.1319 169° South 452 520 37,000  Level Indianapolis Center
Tue 08:53:37 PM 37.9586 -87.0978 170° South 449 517 37,000  Level Indianapolis Center
Tue 08:54:38 PM 37.8356 -87.0692 170° South 448 516 37,000  Level Indianapolis Center
Tue 08:55:40 PM 37.7119 -87.0411 170° South 449 517 37,000  Level Indianapolis Center
Tue 08:56:41 PM 37.5889 -87.0128 170° South 448 516 37,000  Level Indianapolis Center
Tue 08:56:58 PM 37.5489 -87.0036 170° South 455 524 37,000  Level Memphis Center
Tue 08:57:58 PM 37.4275 -86.9750 169° South 449 517 37,000  Level Memphis Center
Tue 08:58:58 PM 37.3017 -86.9489 171° South 455 524 37,000  Level Memphis Center
Tue 08:59:58 PM 37.1906 -86.9225 169° South 455 524 37,000  Level Memphis Center
Tue 09:00:58 PM 37.0689 -86.8939 169° South 449 517 37,000  Level Memphis Center
Tue 09:01:58 PM 36.9472 -86.8681 170° South 455 524 37,000  Level Memphis Center
Tue 09:02:58 PM 36.8236 -86.8372 169° South 455 524 37,000  Level Memphis Center
Tue 09:03:58 PM 36.6997 -86.8089 170° South 449 517 37,000  Level Memphis Center
Tue 09:04:58 PM 36.5761 -86.7808 170° South 449 517 37,000  Level Memphis Center
Tue 09:05:58 PM 36.4394 -86.7456 168° South 449 517 37,000  Level Memphis Center
Tue 09:06:58 PM 36.3117 -86.7231 172° South 466 536 37,000  Level Memphis Center
Tue 09:07:58 PM 36.1858 -86.6953 170° South 467 537 37,000  Level Memphis Center
Tue 09:08:58 PM 36.0592 -86.6469 163° South 467 537 37,000  Level Memphis Center
Tue 09:09:58 PM 35.9533 -86.5953 158° South 467 537 37,000  Level Memphis Center
Tue 09:11:29 PM 35.7686 -86.5033 158° South 480 552 37,000  Level Atlanta Center
Tue 09:12:29 PM 35.6489 -86.4461 159° South 474 545 37,000  Level Atlanta Center
Tue 09:13:29 PM 35.5289 -86.3864 158° South 469 540 37,000  Level Atlanta Center
Tue 09:14:29 PM 35.4028 -86.3242 158° South 469 540 37,000  Level Atlanta Center
Tue 09:15:29 PM 35.2831 -86.2675 159° South 469 540 37,000  Level Atlanta Center
Tue 09:16:29 PM 35.1653 -86.2033 156° South 469 540 37,000  Level Atlanta Center
Tue 09:17:29 PM 35.0264 -86.1414 160° South 467 537 37,000  Level Atlanta Center
Tue 09:18:29 PM 34.9292 -86.0933 158° South 472 543 37,000  Level Atlanta Center
Tue 09:19:29 PM 34.7967 -86.0244 157° South 472 543 37,000  Level Atlanta Center
Tue 09:20:29 PM 34.6725 -85.9633 158° South 472 543 37,000  Level Atlanta Center
Tue 09:21:29 PM 34.5481 -85.9075 160° South 472 543 37,000  Level Atlanta Center
Tue 09:22:29 PM 34.4258 -85.8469 158° South 472 543 37,000  Level Atlanta Center
Tue 09:23:29 PM 34.2911 -85.7886 160° South 464 534 37,000  Level Atlanta Center
Tue 09:24:29 PM 34.1667 -85.7333 160° South 471 542 37,000  Level Atlanta Center
Tue 09:25:29 PM 34.0422 -85.6708 157° South 476 548 37,000  Level Atlanta Center
Tue 09:26:29 PM 33.9136 -85.6133 160° South 486 559 37,000  Level Atlanta Center
Tue 09:27:29 PM 33.8017 -85.5586 158° South 486 559 37,000  Level Atlanta Center
Tue 09:28:29 PM 33.6769 -85.5017 159° South 486 559 37,000  Level Atlanta Center
Tue 09:29:29 PM 33.5525 -85.4422 158° South 491 565 37,000  Level Atlanta Center
Tue 09:30:29 PM 33.4258 -85.3828 159° South 485 558 37,000  Level Atlanta Center
Tue 09:31:29 PM 33.2969 -85.3261 160° South 491 565 37,000  Level Atlanta Center
Tue 09:32:29 PM 33.1725 -85.2672 158° South 486 559 37,000  Level Atlanta Center
Tue 09:33:29 PM 33.0417 -85.1986 156° South 498 573 37,000  Level Atlanta Center
Tue 09:34:29 PM 32.9167 -85.1572 164° South 489 563 37,000  Level Atlanta Center
Tue 09:35:29 PM 32.7981 -85.1261 168° South 484 557 37,000  Level Atlanta Center
Tue 09:36:29 PM 32.6525 -85.0675 161° South 483 556 37,000  Level Atlanta Center
Tue 09:37:29 PM 32.5317 -85.0267 164° South 483 556 37,000  Level Atlanta Center
Tue 09:38:29 PM 32.3964 -84.9811 164° South 483 556 37,000  Level Atlanta Center
Tue 09:39:29 PM 32.2547 -84.9403 166° South 484 557 37,000  Level Atlanta Center
Tue 09:40:29 PM 32.1256 -84.8947 163° South 484 557 37,000  Level Atlanta Center
Tue 09:41:29 PM 31.9964 -84.8519 164° South 478 550 37,000  Level Atlanta Center
Tue 09:43:57 PM 31.6875 -84.7408 163° South 478 550 37,000  Level Jacksonville Center
Tue 09:44:57 PM 31.5608 -84.6822 158° South 483 556 37,000  Level Jacksonville Center
Tue 09:45:57 PM 31.4344 -84.6261 159° South 488 562 37,000  Level Jacksonville Center
Tue 09:46:56 PM 31.3058 -84.5656 158° South 488 562 37,000  Level Jacksonville Center
Tue 09:47:57 PM 31.1769 -84.5050 158° South 493 567 37,000  Level Jacksonville Center
Tue 09:48:57 PM 31.0464 -84.4469 159° South 493 567 37,000  Level Jacksonville Center
Tue 09:49:57 PM 30.9217 -84.3917 159° South 493 567 37,000  Level Jacksonville Center
Tue 09:50:57 PM 30.7928 -84.3314 158° South 493 567 37,000  Level Jacksonville Center
Tue 09:51:57 PM 30.6642 -84.2739 159° South 493 567 37,000 -50 Level Jacksonville Center
Tue 09:52:57 PM 30.5269 -84.2092 158° South 493 567 36,900 -50 Descending Jacksonville Center
Tue 09:53:56 PM 30.4106 -84.1594 160° South 493 567 36,900 50 Level Jacksonville Center
Tue 09:54:57 PM 30.2817 -84.1025 159° South 493 567 37,000 50 Climbing Jacksonville Center
Tue 09:55:57 PM 30.1383 -84.0333 157° South 500 575 37,000  Level Jacksonville Center
Tue 09:56:57 PM 30.0094 -83.9672 156° South 500 575 37,000  Level Jacksonville Center
Tue 09:57:57 PM 29.8825 -83.9033 156° South 500 575 37,000  Level Jacksonville Center
Tue 09:58:57 PM 29.7536 -83.8422 158° South 500 575 37,000  Level Jacksonville Center
Tue 09:59:57 PM 29.6225 -83.7767 157° South 500 575 37,000  Level Jacksonville Center
Tue 10:00:56 PM 29.4936 -83.7133 157° South 506 582 37,000  Level Jacksonville Center
Tue 10:01:56 PM 29.3708 -83.6314 150° Southeast 506 582 37,000  Level Jacksonville Center
Tue 10:02:57 PM 29.2481 -83.5447 148° Southeast 513 590 37,000  Level Jacksonville Center
Tue 10:03:57 PM 29.1211 -83.4678 152° Southeast 519 597 37,000 -50 Level Jacksonville Center
Tue 10:04:56 PM 28.9900 -83.4125 160° South 514 592 36,900 -100 Descending Jacksonville Center
Tue 10:05:57 PM 28.8586 -83.3572 160° South 514 592 36,800 -500 Descending Jacksonville Center
Tue 10:06:56 PM 28.7253 -83.2950 158° South 509 586 35,900 -1,200 Descending Jacksonville Center
Tue 10:09:17 PM 28.4286 -83.1747 160° South 510 587 32,800 -1,590 Descending Miami Center
Tue 10:10:16 PM 28.2978 -83.1156 158° South 510 587 30,600 -2,132 Descending Miami Center
Tue 10:11:18 PM 28.1686 -83.0614 160° South 505 581 28,500 -1,770 Descending Miami Center
Tue 10:12:18 PM 28.0478 -83.0100 159° South 494 568 27,000 -756 Descending Miami Center
Tue 10:13:17 PM 27.9272 -82.9542 158° South 482 555 27,000 -50 Level Miami Center
Tue 10:14:17 PM 27.8008 -82.8864 155° Southeast 463 533 26,900 -595 Descending Miami Center
Tue 10:15:18 PM 27.7033 -82.8225 150° Southeast 451 519 25,800 -1,664 Descending Miami Center
Tue 10:16:16 PM 27.5933 -82.7583 153° Southeast 445 512 23,600 -2,319 Descending Miami Center
Tue 10:17:17 PM 27.4753 -82.6867 152° Southeast 439 505 21,200 -2,200 Descending Miami Center
Tue 10:18:16 PM 27.3733 -82.6256 152° Southeast 424 488 19,200 -1,714 Descending Miami Center
Tue 10:19:16 PM 27.2753 -82.5717 154° Southeast 399 459 17,800 -1,388 Descending Miami Center
Tue 10:20:17 PM 27.1814 -82.5156 152° Southeast 394 453 16,400 -1,438 Descending Miami Center
Tue 10:21:17 PM 27.0897 -82.4622 153° Southeast 388 447 14,900 -1,450 Descending Miami Center
Tue 10:22:17 PM 27.0019 -82.4067 151° Southeast 376 433 13,500 -1,500 Descending Miami Center
Tue 10:23:17 PM 26.9144 -82.3536 152° Southeast 365 420 11,900 -1,311 Descending Miami Center
Tue 10:24:16 PM 26.8306 -82.3056 153° Southeast 352 405 10,900 -1,160 Descending Miami Center
Tue 10:25:16 PM 26.7594 -82.2581 149° Southeast 327 376 9,600 -1,377 Descending Miami Center
Tue 10:26:18 PM 26.6944 -82.2039 143° Southeast 303 349 8,100 -1,525 Descending Miami Center
Tue 10:27:18 PM 26.6275 -82.1544 147° Southeast 292 336 6,500 -1,613 Descending Miami Center
Tue 10:28:17 PM 26.5689 -82.0983 139° Southeast 287 330 4,900 -1,627 Descending Miami Center
Tue 10:29:16 PM 26.5125 -82.0425 138° Southeast 281 323 3,300 -1,000 Descending Miami Center
Tue 10:30:17 PM 26.4644 -81.9825 132° Southeast 268 308 2,900 -393 Descending Miami Center

Login

Don't have an account? Register now (free) for customized features, flight alerts, and more!